Time;durP1;ratioP1;P1;durP2;ratioP2;P2;SDS_P1;SDS_P2;PMS_P1;PMS_P2;Temp;Humidity;BMP_temperature;BMP_pressure;BME280_temperature;BME280_humidity;BME280_pressure;Samples;Min_cycle;Max_cycle;Signal;HPM_P1;HPM_P2
2021/12/27 00:02:26;;;;;;;86.85;32.30;;;;;;;13.96;11.09;97961.31;5014605;28;20050;-72
2021/12/27 00:04:52;;;;;;;85.80;28.88;;;;;;;13.47;11.65;97960.44;5013512;28;20042;-72
2021/12/27 00:07:18;;;;;;;83.35;29.40;;;;;;;12.93;12.17;97953.06;5011523;28;20561;-72
2021/12/27 00:09:44;;;;;;;78.80;27.55;;;;;;;12.70;11.92;97960.47;5011880;28;20096;-72
2021/12/27 00:12:10;;;;;;;79.18;28.95;;;;;;;12.29;12.30;97956.44;5011580;28;20121;-72
2021/12/27 00:14:36;;;;;;;89.35;27.85;;;;;;;12.28;12.44;97954.00;5010456;28;20065;-72
2021/12/27 00:17:02;;;;;;;95.15;34.83;;;;;;;12.00;12.90;97954.16;5011560;28;20038;-72
2021/12/27 00:19:29;;;;;;;81.63;28.15;;;;;;;12.59;12.46;97947.63;5011579;28;20454;-72
2021/12/27 00:21:55;;;;;;;85.55;31.85;;;;;;;12.47;12.55;97943.03;5010300;28;20041;-72
2021/12/27 00:24:21;;;;;;;85.90;29.60;;;;;;;12.66;12.49;97943.06;5010405;28;20491;-72
2021/12/27 00:26:48;;;;;;;74.50;26.20;;;;;;;12.33;12.68;97946.28;5013404;28;20081;-72
2021/12/27 00:29:15;;;;;;;91.97;33.03;;;;;;;13.25;12.04;97953.75;5011538;28;20026;-75
2021/12/27 00:31:42;;;;;;;76.65;28.95;;;;;;;13.30;11.78;97952.66;5005249;28;21704;-73
2021/12/27 00:34:08;;;;;;;92.90;32.05;;;;;;;13.80;11.50;97952.38;5003610;28;20034;-73
2021/12/27 00:36:35;;;;;;;79.68;29.63;;;;;;;14.00;11.18;97944.84;5007821;28;20474;-73
2021/12/27 00:39:02;;;;;;;97.47;33.92;;;;;;;14.01;11.12;97960.22;5002298;28;20034;-73
2021/12/27 00:41:28;;;;;;;92.57;32.00;;;;;;;13.68;11.35;97960.84;5006464;28;20551;-74
2021/12/27 00:43:54;;;;;;;95.18;31.70;;;;;;;13.38;11.59;97955.19;5003448;28;20045;-75
2021/12/27 00:46:20;;;;;;;88.45;32.03;;;;;;;13.23;11.55;97955.28;5004390;28;20113;-74
2021/12/27 00:48:46;;;;;;;81.57;29.48;;;;;;;12.89;11.77;97954.97;5005843;28;20181;-74
2021/12/27 00:51:12;;;;;;;90.72;32.17;;;;;;;12.07;12.31;97953.50;5003745;28;20089;-75
2021/12/27 00:53:38;;;;;;;103.05;32.40;;;;;;;10.37;13.80;97953.59;5008769;28;20049;-75
2021/12/27 00:56:04;;;;;;;84.80;32.38;;;;;;;9.88;14.43;97958.28;5008150;28;20521;-74
2021/12/27 00:58:30;;;;;;;76.05;28.67;;;;;;;9.94;14.25;97943.19;5005641;28;20516;-75
2021/12/27 01:00:56;;;;;;;74.40;28.73;;;;;;;10.77;13.98;97948.91;5007323;28;20037;-75
2021/12/27 01:03:22;;;;;;;73.22;27.75;;;;;;;9.66;14.17;97945.06;5006911;28;20045;-74
2021/12/27 01:05:49;;;;;;;95.40;31.27;;;;;;;9.75;14.38;97949.25;5008230;28;20045;-74
2021/12/27 01:08:17;;;;;;;75.30;28.48;;;;;;;10.58;13.91;97947.94;5007954;28;20048;-74
2021/12/27 01:13:26;;;;;;;89.93;30.52;;;;;;;10.93;13.46;97948.97;5007134;28;20513;-74
2021/12/27 01:18:32;;;;;;;81.63;29.08;;;;;;;11.70;13.02;97939.25;5001622;28;20046;-74
2021/12/27 01:20:58;;;;;;;92.55;30.85;;;;;;;11.44;13.26;97950.75;5005826;28;20540;-74
2021/12/27 01:23:25;;;;;;;79.93;31.27;;;;;;;11.84;12.73;97944.31;5007999;28;20473;-75
2021/12/27 01:25:51;;;;;;;71.93;27.33;;;;;;;11.59;13.00;97943.66;5006830;28;20095;-74
2021/12/27 01:28:19;;;;;;;76.30;27.45;;;;;;;11.98;12.78;97936.41;5008683;28;20096;-75
2021/12/27 01:30:48;;;;;;;96.03;32.10;;;;;;;12.04;12.72;97940.50;5007141;28;20104;-75
2021/12/27 01:33:16;;;;;;;87.35;29.98;;;;;;;12.11;12.69;97944.19;5005541;28;20053;-74
2021/12/27 01:35:43;;;;;;;84.05;29.83;;;;;;;11.55;12.80;97949.06;5006765;28;20062;-74
2021/12/27 01:38:11;;;;;;;76.45;26.88;;;;;;;11.91;12.56;97945.28;5008196;28;20061;-75
2021/12/27 01:40:38;;;;;;;71.53;29.10;;;;;;;12.58;12.06;97944.06;5005809;28;20109;-75
2021/12/27 01:43:21;;;;;;;86.85;29.77;;;;;;;12.34;12.20;97950.66;5000910;28;20052;-75
2021/12/27 01:45:52;;;;;;;75.70;27.95;;;;;;;11.79;12.79;97943.44;5009702;28;20632;-75
2021/12/27 01:48:21;;;;;;;;;;;;;;;11.40;12.76;97944.38;5011034;28;20113;-75
2021/12/27 01:50:48;;;;;;;80.10;27.20;;;;;;;11.69;12.58;97943.19;5006512;28;19917;-75
2021/12/27 01:53:15;;;;;;;72.65;25.60;;;;;;;12.07;12.44;97943.31;5011092;28;20030;-74
2021/12/27 01:55:42;;;;;;;89.78;31.38;;;;;;;11.07;12.57;97946.59;5007118;28;20185;-75
2021/12/27 01:58:08;;;;;;;76.88;29.02;;;;;;;10.84;12.54;97945.56;5001781;28;20058;-75
2021/12/27 02:00:39;;;;;;;68.93;26.23;;;;;;;10.21;13.65;97944.47;5019363;28;20044;-75
2021/12/27 02:03:05;;;;;;;87.85;32.70;;;;;;;10.50;13.45;97935.97;5005063;28;20054;-75
2021/12/27 02:05:32;;;;;;;108.28;39.63;;;;;;;10.32;13.99;97938.16;5008631;28;20088;-75
2021/12/27 02:07:58;;;;;;;85.78;30.83;;;;;;;10.92;13.16;97933.66;5001286;28;20494;-75
2021/12/27 02:10:24;;;;;;;78.57;29.10;;;;;;;10.66;12.82;97930.53;5009147;28;20061;-75
2021/12/27 02:12:51;;;;;;;79.05;28.25;;;;;;;10.15;13.75;97935.66;5005014;28;20033;-75
2021/12/27 02:15:17;;;;;;;79.15;26.63;;;;;;;10.81;13.13;97924.28;5004580;28;20044;-75
2021/12/27 02:17:44;;;;;;;80.85;29.38;;;;;;;10.14;13.48;97919.56;5006930;28;20066;-75
2021/12/27 02:20:21;;;;;;;82.80;26.58;;;;;;;10.99;12.44;97920.09;5007452;28;20027;-74
2021/12/27 02:22:49;;;;;;;86.53;30.88;;;;;;;11.39;12.64;97915.28;5006563;28;20410;-75
2021/12/27 02:25:16;;;;;;;77.43;28.00;;;;;;;11.49;12.45;97922.19;5005818;28;20456;-75
2021/12/27 02:27:43;;;;;;;90.72;32.20;;;;;;;10.99;12.60;97920.09;5006617;28;20030;-75
2021/12/27 02:30:13;;;;;;;83.00;29.20;;;;;;;11.30;12.26;97909.16;5005644;28;20053;-74
2021/12/27 02:32:58;;;;;;;76.80;30.23;;;;;;;11.98;11.81;97906.16;5007433;28;20088;-74
2021/12/27 02:35:27;;;;;;;92.85;29.42;;;;;;;12.42;11.63;97893.78;5004205;28;20049;-74
2021/12/27 02:37:55;;;;;;;76.38;28.15;;;;;;;12.24;11.70;97898.91;5001308;28;20044;-74
2021/12/27 02:40:23;;;;;;;79.25;28.98;;;;;;;12.48;11.39;97895.09;5004034;28;20092;-74
2021/12/27 02:43:08;;;;;;;81.38;29.48;;;;;;;12.66;11.25;97899.00;5008586;28;20090;-74
2021/12/27 02:45:38;;;;;;;90.95;32.30;;;;;;;12.53;11.42;97911.34;5007589;28;20046;-74
2021/12/27 02:48:05;;;;;;;75.70;26.80;;;;;;;12.62;11.40;97914.66;5010389;28;20034;-74
2021/12/27 02:50:32;;;;;;;77.80;27.40;;;;;;;12.35;11.39;97916.44;5011356;28;20397;-75
2021/12/27 02:52:59;;;;;;;84.93;30.30;;;;;;;12.92;11.00;97912.94;5007294;28;20060;-74
2021/12/27 02:55:26;;;;;;;84.88;30.02;;;;;;;12.99;10.87;97913.06;5008154;28;20038;-75
2021/12/27 02:57:52;;;;;;;73.82;28.45;;;;;;;11.71;11.45;97903.19;5011868;28;20112;-75
2021/12/27 03:00:22;;;;;;;74.13;28.20;;;;;;;11.11;12.16;97903.53;5007121;28;20034;-75
2021/12/27 03:02:50;;;;;;;82.20;30.25;;;;;;;11.13;11.87;97900.47;5010627;28;20034;-75
2021/12/27 03:05:18;;;;;;;87.15;30.85;;;;;;;11.93;11.55;97887.16;5006709;28;20038;-75
2021/12/27 03:07:46;;;;;;;97.15;33.97;;;;;;;12.57;11.02;97892.94;5011200;28;20042;-75
2021/12/27 03:10:15;;;;;;;76.38;30.58;;;;;;;13.11;10.84;97882.63;5011793;28;20029;-75
2021/12/27 03:12:43;;;;;;;81.35;28.70;;;;;;;12.77;11.18;97882.69;5007505;28;20375;-75
2021/12/27 03:15:11;;;;;;;85.80;30.98;;;;;;;11.34;11.91;97890.78;5007467;28;20085;-75
2021/12/27 03:17:38;;;;;;;90.15;28.58;;;;;;;11.46;11.98;97885.22;5014607;28;20030;-75
2021/12/27 03:20:06;;;;;;;72.50;26.05;;;;;;;11.26;11.92;97889.03;5013839;28;20052;-75
2021/12/27 03:22:33;;;;;;;90.03;33.65;;;;;;;12.23;11.52;97885.47;5007622;28;20034;-75
2021/12/27 03:25:00;;;;;;;90.90;34.95;;;;;;;12.68;11.26;97890.38;5013343;28;20033;-75
2021/12/27 03:27:26;;;;;;;83.15;28.45;;;;;;;12.76;11.40;97889.38;5010525;28;20046;-75
2021/12/27 03:29:53;;;;;;;92.10;31.55;;;;;;;12.91;11.05;97894.78;5007710;28;20037;-75
2021/12/27 03:32:21;;;;;;;93.60;31.92;;;;;;;12.75;11.36;97891.31;5013133;28;20025;-75
2021/12/27 03:34:54;;;;;;;83.07;31.48;;;;;;;13.02;11.43;97903.28;5011194;28;20038;-75
2021/12/27 03:37:22;;;;;;;106.07;34.60;;;;;;;12.37;11.55;97910.56;5005204;28;20105;-75
2021/12/27 03:39:48;;;;;;;78.22;29.30;;;;;;;12.99;11.30;97901.25;5008412;28;20034;-75
2021/12/27 03:42:16;;;;;;;99.88;34.28;;;;;;;11.00;12.68;97908.75;5011152;28;20049;-75
2021/12/27 03:44:44;;;;;;;86.97;32.30;;;;;;;9.99;13.52;97912.81;5009446;28;20041;-75
2021/12/27 03:47:10;;;;;;;76.05;28.70;;;;;;;9.93;13.86;97907.91;5011857;28;20520;-75
2021/12/27 03:49:37;;;;;;;98.18;32.53;;;;;;;9.00;14.52;97900.53;5009854;28;20026;-75
2021/12/27 03:52:04;;;;;;;89.30;33.58;;;;;;;7.54;15.42;97904.38;5010750;28;20093;-75
2021/12/27 03:54:30;;;;;;;92.25;33.40;;;;;;;7.46;15.84;97910.69;5007620;28;20394;-74
2021/12/27 03:56:56;;;;;;;71.85;26.38;;;;;;;9.64;14.38;97903.47;5008466;28;20061;-75
2021/12/27 03:59:36;;;;;;;67.93;26.65;;;;;;;10.80;13.41;97908.97;5006812;28;20030;-74
2021/12/27 04:02:05;;;;;;;77.37;29.70;;;;;;;12.07;12.21;97904.00;5008530;28;20026;-75
2021/12/27 04:04:33;;;;;;;81.10;28.95;;;;;;;12.38;11.74;97912.19;5010911;28;20346;-75
2021/12/27 04:07:00;;;;;;;72.15;28.17;;;;;;;12.42;11.88;97904.78;5006871;28;20046;-75
2021/12/27 04:09:29;;;;;;;76.18;27.38;;;;;;;11.51;12.34;97906.94;5009423;28;20478;-74
2021/12/27 04:11:55;;;;;;;73.18;27.15;;;;;;;8.86;14.76;97920.00;5008709;28;20038;-74
2021/12/27 04:14:21;;;;;;;69.65;26.35;;;;;;;10.81;13.28;97910.56;5013856;28;20033;-74
2021/12/27 04:16:47;;;;;;;70.45;24.67;;;;;;;11.72;12.90;97907.50;5004924;28;20065;-75
2021/12/27 04:19:16;;;;;;;60.15;23.80;;;;;;;12.39;12.38;97906.31;5009928;28;22684;-74
2021/12/27 04:21:42;;;;;;;57.95;23.55;;;;;;;13.02;11.91;97912.31;5009505;28;20057;-74
2021/12/27 04:24:08;;;;;;;60.40;22.83;;;;;;;13.31;11.75;97919.22;5009529;28;20034;-75
2021/12/27 04:26:35;;;;;;;63.22;22.45;;;;;;;13.77;11.43;97920.81;5011207;28;20552;-75
2021/12/27 04:29:01;;;;;;;55.45;22.63;;;;;;;13.98;11.38;97916.81;5008409;28;20083;-75
2021/12/27 04:31:27;;;;;;;60.05;22.35;;;;;;;13.80;11.49;97919.25;5003963;28;20511;-75
2021/12/27 04:33:53;;;;;;;56.72;20.63;;;;;;;13.29;11.94;97916.03;5007459;28;20204;-74
2021/12/27 04:36:19;;;;;;;52.47;20.30;;;;;;;11.08;13.50;97924.28;5008806;28;20033;-74
2021/12/27 04:38:45;;;;;;;52.67;20.75;;;;;;;9.78;14.84;97927.81;5008517;28;20037;-74
2021/12/27 04:41:15;;;;;;;51.30;19.08;;;;;;;8.45;16.59;97928.25;5007651;28;20041;-75
2021/12/27 04:43:41;;;;;;;50.22;20.08;;;;;;;9.42;15.72;97925.84;5007702;28;20030;-75
2021/12/27 04:46:07;;;;;;;53.83;19.35;;;;;;;6.34;18.27;97928.41;5007410;28;20367;-75
2021/12/27 04:48:34;;;;;;;33.05;14.50;;;;;;;6.35;19.14;97931.94;5009581;28;20034;-75
2021/12/27 04:51:00;;;;;;;50.65;17.70;;;;;;;7.41;18.61;97932.72;5008683;28;20481;-74
2021/12/27 04:53:26;;;;;;;57.33;19.95;;;;;;;9.18;17.02;97926.59;5009396;28;20038;-75
2021/12/27 04:55:52;;;;;;;41.35;16.13;;;;;;;7.71;18.86;97930.81;5007980;28;20116;-75
2021/12/27 04:58:21;;;;;;;47.97;19.50;;;;;;;9.89;16.56;97937.16;5008064;28;20035;-75
2021/12/27 05:00:48;;;;;;;38.42;15.77;;;;;;;10.28;16.33;97939.22;5011083;28;20025;-75
2021/12/27 05:03:14;;;;;;;50.35;17.83;;;;;;;8.60;17.61;97946.78;5008719;28;20513;-75
2021/12/27 05:05:44;;;;;;;36.60;14.10;;;;;;;7.42;18.90;97945.22;5008351;28;20037;-75
2021/12/27 05:08:11;;;;;;;42.03;16.33;;;;;;;8.64;18.05;97925.81;5005935;28;20060;-75
2021/12/27 05:10:37;;;;;;;40.60;13.43;;;;;;;9.90;17.14;97925.03;5007361;28;20088;-75
2021/12/27 05:13:04;;;;;;;39.22;15.65;;;;;;;10.76;16.23;97924.56;5006362;28;20035;-75
2021/12/27 05:15:30;;;;;;;44.22;16.77;;;;;;;11.60;15.71;97921.31;5008771;28;20478;-75
2021/12/27 05:17:56;;;;;;;52.97;18.38;;;;;;;10.44;16.71;97926.38;5005990;28;20043;-75
2021/12/27 05:20:23;;;;;;;49.10;16.38;;;;;;;8.55;18.41;97925.09;5006961;28;20105;-75
2021/12/27 05:22:49;;;;;;;44.33;16.25;;;;;;;9.33;18.29;97917.72;5006768;28;20486;-74
2021/12/27 05:25:16;;;;;;;44.10;16.10;;;;;;;8.79;18.32;97922.50;5008789;28;20084;-75
2021/12/27 05:27:43;;;;;;;33.90;15.10;;;;;;;7.70;19.73;97925.69;5011616;28;20036;-75
2021/12/27 05:30:11;;;;;;;50.45;17.60;;;;;;;9.30;18.66;97918.41;5012692;28;20030;-75
2021/12/27 05:32:39;;;;;;;50.75;16.27;;;;;;;9.11;18.30;97914.59;5012437;28;20125;-75
2021/12/27 05:35:07;;;;;;;41.55;16.52;;;;;;;10.64;17.22;97913.63;5012868;28;20061;-75
2021/12/27 05:37:33;;;;;;;46.33;15.57;;;;;;;11.97;15.82;97912.81;5011404;28;20037;-75
2021/12/27 05:40:04;;;;;;;34.53;13.65;;;;;;;10.87;16.25;97920.16;5010682;28;20448;-75
2021/12/27 05:42:32;;;;;;;40.45;15.30;;;;;;;11.36;16.26;97913.25;5015437;28;20029;-74
2021/12/27 05:44:58;;;;;;;48.58;16.83;;;;;;;9.67;17.83;97919.22;5012458;28;20030;-75
2021/12/27 05:47:24;;;;;;;34.33;12.63;;;;;;;9.85;17.67;97915.09;5012086;28;20121;-75
2021/12/27 05:49:51;;;;;;;42.45;15.48;;;;;;;8.56;19.47;97920.44;5012040;28;20034;-75
2021/12/27 05:52:17;;;;;;;47.15;16.10;;;;;;;8.30;19.58;97916.00;5009532;28;20019;-75
2021/12/27 05:54:43;;;;;;;33.88;12.95;;;;;;;10.09;17.45;97915.09;5007114;28;20046;-75
2021/12/27 05:57:09;;;;;;;44.38;16.13;;;;;;;9.40;17.91;97920.69;5007018;28;20038;-75
2021/12/27 05:59:35;;;;;;;39.17;15.23;;;;;;;11.29;16.51;97913.06;5010047;28;20038;-75
2021/12/27 06:02:01;;;;;;;41.08;14.80;;;;;;;11.88;15.72;97913.00;5007562;28;20033;-75
2021/12/27 06:04:27;;;;;;;37.63;15.18;;;;;;;9.98;17.49;97913.97;5005715;28;20096;-75
2021/12/27 06:06:53;;;;;;;44.53;15.50;;;;;;;11.56;16.11;97911.38;5005644;28;20385;-75
2021/12/27 06:09:19;;;;;;;39.92;17.13;;;;;;;12.18;15.59;97899.56;5006860;28;20409;-75
2021/12/27 06:11:45;;;;;;;39.28;14.95;;;;;;;11.68;16.15;97901.13;5005588;28;20457;-75
2021/12/27 06:14:12;;;;;;;38.03;13.75;;;;;;;11.78;15.88;97886.81;5011509;28;20034;-75
2021/12/27 06:16:39;;;;;;;52.40;19.13;;;;;;;9.62;17.58;97903.00;5010037;28;20057;-75
2021/12/27 06:19:05;;;;;;;40.33;15.30;;;;;;;11.35;16.56;97908.91;5010812;28;20046;-74
2021/12/27 06:21:33;;;;;;;43.00;16.10;;;;;;;11.38;16.58;97910.94;5013515;28;20367;-74
2021/12/27 06:24:00;;;;;;;47.17;16.77;;;;;;;10.89;16.63;97906.88;5012537;28;20108;-74
2021/12/27 06:26:26;;;;;;;43.20;14.75;;;;;;;8.45;19.47;97906.34;5010875;28;20038;-75
2021/12/27 06:28:52;;;;;;;39.85;14.60;;;;;;;7.47;20.79;97912.28;5009340;28;20030;-75
2021/12/27 06:31:19;;;;;;;45.72;16.08;;;;;;;6.87;21.75;97919.84;5013909;28;20041;-75
2021/12/27 06:33:46;;;;;;;44.67;15.68;;;;;;;7.83;20.94;97913.69;5014420;28;20029;-75
2021/12/27 06:36:12;;;;;;;37.50;14.88;;;;;;;8.99;19.66;97915.34;5013157;28;20121;-75
2021/12/27 06:38:38;;;;;;;44.78;16.55;;;;;;;8.46;19.53;97923.56;5012082;28;20092;-74
2021/12/27 06:41:04;;;;;;;38.08;14.73;;;;;;;9.38;19.17;97917.47;5012476;28;20116;-75
2021/12/27 06:43:31;;;;;;;47.95;16.10;;;;;;;9.81;18.38;97919.69;5012192;28;20030;-74
2021/12/27 06:45:58;;;;;;;43.30;15.80;;;;;;;8.44;19.92;97914.91;5008169;28;20034;-75
2021/12/27 06:48:25;;;;;;;45.05;16.20;;;;;;;8.09;20.50;97906.94;5008851;28;20721;-75
2021/12/27 06:50:51;;;;;;;35.97;14.90;;;;;;;9.60;18.76;97908.84;5014321;28;20034;-76
2021/12/27 06:53:17;;;;;;;47.13;16.42;;;;;;;9.81;18.63;97896.94;5015972;28;20056;-76
2021/12/27 06:55:45;;;;;;;40.70;15.43;;;;;;;10.56;17.91;97906.31;5012871;28;20112;-76
2021/12/27 06:58:12;;;;;;;45.22;16.15;;;;;;;10.11;18.05;97901.03;5010632;28;20402;-76
2021/12/27 07:00:39;;;;;;;46.38;16.27;;;;;;;8.46;20.00;97910.72;5010041;28;20037;-76
2021/12/27 07:03:05;;;;;;;50.90;17.05;;;;;;;7.61;20.74;97896.47;5015434;28;20042;-76
2021/12/27 07:05:31;;;;;;;45.05;16.10;;;;;;;8.91;19.94;97903.34;5015453;28;20040;-76
2021/12/27 07:07:57;;;;;;;50.25;16.77;;;;;;;7.26;21.48;97903.19;5015436;28;20046;-76
2021/12/27 07:10:23;;;;;;;39.58;15.38;;;;;;;7.71;20.99;97894.47;5015133;28;20112;-76
2021/12/27 07:12:51;;;;;;;43.10;14.88;;;;;;;9.64;19.21;97900.72;5015122;28;20489;-76
2021/12/27 07:15:17;;;;;;;33.15;13.52;;;;;;;9.20;19.91;97905.13;5015463;28;20442;-76
2021/12/27 07:17:44;;;;;;;47.00;17.77;;;;;;;7.53;21.64;97901.97;5015188;28;20406;-76
2021/12/27 07:20:10;;;;;;;42.17;15.48;;;;;;;7.81;21.71;97911.31;5015407;28;20053;-76
2021/12/27 07:22:37;;;;;;;34.65;13.48;;;;;;;10.43;18.82;97898.13;5014774;28;20048;-76
2021/12/27 07:25:04;;;;;;;36.60;14.95;;;;;;;10.94;17.66;97903.88;5015415;28;20049;-76
2021/12/27 07:27:30;;;;;;;35.90;13.23;;;;;;;8.65;19.90;97902.00;5014293;28;20461;-75
2021/12/27 07:29:56;;;;;;;40.47;14.05;;;;;;;5.46;23.68;97905.16;5014210;28;20033;-76
2021/12/27 07:32:22;;;;;;;40.15;15.98;;;;;;;6.44;23.40;97908.22;5015466;28;20030;-76
2021/12/27 07:34:49;;;;;;;39.95;15.10;;;;;;;9.03;20.58;97892.44;5012972;28;20100;-76
2021/12/27 07:37:16;;;;;;;38.30;14.30;;;;;;;10.39;18.34;97886.25;5011877;28;20536;-76
2021/12/27 07:39:43;;;;;;;27.73;11.90;;;;;;;10.82;17.86;97884.72;5014988;28;20080;-75
2021/12/27 07:42:09;;;;;;;34.63;13.70;;;;;;;10.22;18.44;97878.28;5014903;28;20118;-76
2021/12/27 07:44:35;;;;;;;37.33;14.57;;;;;;;10.48;18.22;97877.09;5014851;28;20084;-76
2021/12/27 07:47:02;;;;;;;38.85;14.70;;;;;;;10.90;18.07;97867.25;5014839;28;20034;-76
2021/12/27 07:49:28;;;;;;;39.58;13.80;;;;;;;9.66;19.82;97871.81;5010917;28;20041;-76
2021/12/27 07:51:54;;;;;;;32.85;13.35;;;;;;;11.69;17.58;97866.19;5010921;28;20116;-76
2021/12/27 07:54:20;;;;;;;30.25;11.57;;;;;;;11.68;17.77;97859.09;5013272;28;20478;-75
2021/12/27 07:56:46;;;;;;;32.08;13.85;;;;;;;9.73;19.30;97869.31;5014517;28;20034;-76
2021/12/27 07:59:13;;;;;;;31.08;11.57;;;;;;;10.30;19.12;97871.06;5012330;28;20563;-76
2021/12/27 08:01:40;;;;;;;37.13;13.13;;;;;;;11.39;17.62;97865.81;5010934;28;20036;-76
2021/12/27 08:04:07;;;;;;;38.88;13.98;;;;;;;10.35;18.76;97868.09;5014535;28;20538;-78
2021/12/27 08:06:33;;;;;;;35.42;12.02;;;;;;;10.64;18.93;97861.47;5009260;28;20042;-77
2021/12/27 08:08:59;;;;;;;40.42;14.68;;;;;;;11.20;18.41;97865.72;5012738;28;20102;-77
2021/12/27 08:11:26;;;;;;;27.77;11.20;;;;;;;11.44;18.13;97865.53;5013507;28;20041;-77
2021/12/27 08:13:53;;;;;;;26.17;12.48;;;;;;;12.22;17.46;97861.88;5014412;28;20025;-77
2021/12/27 08:16:23;;;;;;;34.28;13.18;;;;;;;13.47;16.23;97850.16;5006768;28;20101;-77
2021/12/27 08:18:52;;;;;;;37.38;13.40;;;;;;;13.05;16.66;97855.69;5012908;28;20441;-77
2021/12/27 08:21:19;;;;;;;40.13;14.38;;;;;;;12.08;17.07;97848.63;5012623;28;20099;-77
2021/12/27 08:23:45;;;;;;;48.15;16.42;;;;;;;10.07;18.87;97851.56;5014039;28;20030;-77
2021/12/27 08:26:12;;;;;;;43.95;15.25;;;;;;;11.20;18.38;97843.75;5014327;28;20448;-77
2021/12/27 08:28:39;;;;;;;30.65;12.20;;;;;;;10.16;19.55;97841.28;5013330;28;20036;-77
2021/12/27 08:31:05;;;;;;;36.08;13.57;;;;;;;8.62;20.92;97846.03;5008785;28;20096;-77
2021/12/27 08:33:31;;;;;;;40.53;15.48;;;;;;;7.14;23.08;97840.31;5013315;28;20113;-77
2021/12/27 08:35:57;;;;;;;43.33;15.10;;;;;;;7.50;22.83;97843.34;5009632;28;20104;-77
2021/12/27 08:38:23;;;;;;;40.22;15.00;;;;;;;9.03;21.18;97837.66;5014275;28;20042;-77
2021/12/27 08:40:49;;;;;;;40.15;15.32;;;;;;;7.97;22.02;97838.53;5013345;28;20041;-77
2021/12/27 08:43:15;;;;;;;38.72;14.02;;;;;;;7.34;23.41;97846.97;5013972;28;20034;-75
2021/12/27 08:45:41;;;;;;;34.53;12.65;;;;;;;8.25;22.39;97836.84;5013300;28;20042;-76
2021/12/27 08:48:07;;;;;;;78.72;17.63;;;;;;;8.89;21.72;97839.94;5011110;28;20080;-76
2021/12/27 08:50:35;;;;;;;40.65;14.27;;;;;;;10.67;19.96;97838.78;5012151;28;20124;-76
2021/12/27 08:53:02;;;;;;;38.22;13.93;;;;;;;8.26;22.89;97837.69;5013361;28;20624;-74
2021/12/27 08:55:28;;;;;;;38.80;15.45;;;;;;;8.93;21.88;97840.06;5010842;28;20085;-75
2021/12/27 08:57:54;;;;;;;39.08;14.35;;;;;;;10.46;20.37;97832.72;5011995;28;20393;-74
2021/12/27 09:00:20;;;;;;;32.88;13.40;;;;;;;11.31;19.46;97833.81;5011156;28;20490;-75
2021/12/27 09:02:46;;;;;;;46.03;15.23;;;;;;;10.60;20.08;97824.88;5006357;28;20389;-75
2021/12/27 09:05:13;;;;;;;40.45;14.38;;;;;;;11.79;19.29;97827.13;5012785;28;20044;-76
2021/12/27 09:07:39;;;;;;;42.17;15.38;;;;;;;11.21;19.37;97822.56;5011322;28;20521;-76
2021/12/27 09:10:06;;;;;;;37.15;14.65;;;;;;;11.24;19.66;97821.84;5012907;28;20038;-76
2021/12/27 09:12:32;;;;;;;38.30;15.40;;;;;;;11.53;19.48;97816.69;5013459;28;20037;-76
2021/12/27 09:14:58;;;;;;;42.05;14.77;;;;;;;12.61;18.07;97811.19;5028077;28;20129;-76
2021/12/27 09:17:24;;;;;;;43.47;15.13;;;;;;;11.68;18.70;97809.59;5011551;28;20081;-76
2021/12/27 09:19:51;;;;;;;41.22;15.80;;;;;;;11.63;18.97;97807.09;5011447;28;20029;-76
2021/12/27 09:22:18;;;;;;;36.88;14.38;;;;;;;10.43;20.23;97807.56;5027455;28;20446;-76
2021/12/27 09:24:45;;;;;;;40.60;15.77;;;;;;;9.87;20.98;97803.16;5013117;28;20045;-75
2021/12/27 09:27:11;;;;;;;36.88;14.10;;;;;;;11.62;19.69;97795.28;5006469;28;20490;-76
2021/12/27 09:29:37;;;;;;;43.13;15.00;;;;;;;10.30;21.58;97802.47;5007277;28;20436;-76
2021/12/27 09:32:04;;;;;;;45.80;16.63;;;;;;;10.41;21.16;97793.41;5012873;28;20038;-76
2021/12/27 09:34:30;;;;;;;47.88;16.83;;;;;;;11.64;19.45;97793.00;5007240;28;20034;-76
2021/12/27 09:36:56;;;;;;;35.47;14.35;;;;;;;11.83;19.49;97791.47;5012718;28;20029;-75
2021/12/27 09:39:22;;;;;;;37.10;13.38;;;;;;;11.34;20.09;97786.38;5012588;28;20034;-77
2021/12/27 09:41:48;;;;;;;32.42;13.13;;;;;;;12.16;19.09;97791.81;5009089;28;20026;-76
2021/12/27 09:44:14;;;;;;;34.95;15.50;;;;;;;12.99;18.12;97786.31;5007627;28;20034;-77
2021/12/27 09:46:40;;;;;;;40.63;15.20;;;;;;;10.07;20.95;97795.91;5012707;28;20026;-77
2021/12/27 09:49:11;;;;;;;36.88;15.48;;;;;;;11.03;20.25;97800.16;5028271;28;20038;-77
2021/12/27 09:51:40;;;;;;;39.70;15.27;;;;;;;13.05;18.26;97782.13;5011741;28;20068;-77
2021/12/27 09:54:06;;;;;;;38.33;15.68;;;;;;;12.66;18.30;97783.34;5008892;28;20033;-77
2021/12/27 09:56:33;;;;;;;36.78;12.68;;;;;;;12.74;18.77;97785.06;5005336;28;20069;-77
2021/12/27 09:58:59;;;;;;;45.40;15.75;;;;;;;12.68;18.40;97780.22;5010822;28;20030;-76
2021/12/27 10:01:25;;;;;;;35.70;13.65;;;;;;;11.88;19.72;97774.69;5012618;28;20034;-77
2021/12/27 10:03:55;;;;;;;33.85;13.18;;;;;;;12.15;19.19;97780.00;5012979;28;20022;-76
2021/12/27 10:06:23;;;;;;;36.97;15.07;;;;;;;12.26;18.69;97780.19;5001117;28;20177;-77
2021/12/27 10:08:59;;;;;;;44.47;17.20;;;;;;;9.86;21.14;97790.59;5011835;28;20046;-77
2021/12/27 10:11:43;;;;;;;31.13;11.95;;;;;;;11.96;19.56;97782.72;5009469;28;20029;-77
2021/12/27 10:14:10;;;;;;;31.42;12.90;;;;;;;11.39;20.19;97783.34;5009552;28;20113;-76
2021/12/27 10:16:40;;;;;;;38.90;15.63;;;;;;;9.81;21.42;97782.63;5009257;28;20030;-76
2021/12/27 10:19:09;;;;;;;43.60;15.57;;;;;;;9.53;21.85;97779.81;5010955;28;20030;-76
2021/12/27 10:21:36;;;;;;;41.38;14.40;;;;;;;12.78;19.12;97774.13;5009587;28;20393;-76
2021/12/27 10:24:27;;;;;;;38.95;15.18;;;;;;;12.48;19.57;97779.47;5009316;28;20073;-77
2021/12/27 10:26:55;;;;;;;44.22;16.75;;;;;;;12.50;19.01;97785.41;5009102;28;20545;-77
2021/12/27 10:29:27;;;;;;;42.53;16.40;;;;;;;10.43;21.10;97789.53;5010316;28;20026;-76
2021/12/27 10:31:54;;;;;;;43.35;16.52;;;;;;;10.90;20.80;97765.66;5010781;28;20039;-76
2021/12/27 10:34:22;;;;;;;39.95;15.65;;;;;;;11.02;20.59;97777.38;5006569;28;20500;-76
2021/12/27 10:37:05;;;;;;;40.10;16.42;;;;;;;11.81;20.00;97766.28;5010731;28;20038;-76
2021/12/27 10:40:04;;;;;;;34.10;15.00;;;;;;;14.57;17.48;97764.97;5009576;28;20034;-76
2021/12/27 10:42:47;;;;;;;39.97;13.95;;;;;;;14.81;17.26;97758.91;5009866;28;20026;-76
2021/12/27 10:45:22;;;;;;;39.75;15.93;;;;;;;13.11;18.59;97755.06;5010520;28;20394;-76
2021/12/27 10:47:57;;;;;;;35.53;14.98;;;;;;;14.74;17.44;97747.78;5012189;28;20041;-75
2021/12/27 10:50:34;;;;;;;48.75;17.27;;;;;;;12.66;19.17;97747.53;5012133;28;20397;-76
2021/12/27 10:53:01;;;;;;;36.28;15.15;;;;;;;12.15;19.91;97748.91;5008065;28;20022;-76
2021/12/27 10:55:35;;;;;;;44.13;16.33;;;;;;;12.01;20.05;97746.69;5011508;28;20116;-77
2021/12/27 10:58:19;;;;;;;43.63;16.30;;;;;;;13.70;18.43;97735.06;5007247;28;20222;-75
2021/12/27 11:01:08;;;;;;;36.17;14.05;;;;;;;15.61;16.46;97735.88;5003337;28;20030;-77
2021/12/27 11:03:58;;;;;;;36.17;14.60;;;;;;;15.56;16.93;97722.44;5008498;28;20041;-78
2021/12/27 11:06:30;;;;;;;39.60;14.65;;;;;;;15.95;16.21;97719.88;5013309;28;20049;-79
2021/12/27 11:08:58;;;;;;;38.47;14.35;;;;;;;15.31;16.77;97718.66;5016915;28;20041;-79
2021/12/27 11:11:25;;;;;;;35.30;13.43;;;;;;;16.50;16.04;97724.03;5007596;28;20387;-79
2021/12/27 11:13:54;;;;;;;32.88;12.60;;;;;;;15.24;16.87;97713.06;5004798;28;20540;-79
2021/12/27 11:16:21;;;;;;;23.98;10.65;;;;;;;13.93;18.33;97719.22;5011160;28;20033;-80
2021/12/27 11:18:47;;;;;;;28.65;11.82;;;;;;;13.96;18.17;97707.44;5007826;28;20375;-76
2021/12/27 11:21:21;;;;;;;39.10;14.60;;;;;;;12.81;18.64;97710.03;5004510;28;20040;-76
2021/12/27 11:23:50;;;;;;;29.88;11.82;;;;;;;13.27;18.93;97710.81;5004514;28;20035;-77
2021/12/27 11:26:23;;;;;;;33.55;13.90;;;;;;;10.53;21.82;97706.66;5006583;28;20034;-76
2021/12/27 11:28:50;;;;;;;33.50;12.68;;;;;;;9.50;23.34;97709.28;5003959;28;20098;-78